sensor_id;sensor_type;location;lat;lon;timestamp;pressure;altitude;pressure_sealevel;temperature;humidity
50444;BME280;36370;52.216;21.142;2022-10-15T00:01:30;100571.28;;;8.06;100.00
50444;BME280;36370;52.216;21.142;2022-10-15T00:05:35;100563.00;;;7.97;100.00
50444;BME280;36370;52.216;21.142;2022-10-15T00:09:38;100568.47;;;7.92;100.00
50444;BME280;36370;52.216;21.142;2022-10-15T00:13:40;100574.50;;;7.94;100.00
50444;BME280;36370;52.216;21.142;2022-10-15T00:17:43;100569.56;;;7.88;100.00
50444;BME280;36370;52.216;21.142;2022-10-15T00:21:44;100559.44;;;7.80;100.00
50444;BME280;36370;52.216;21.142;2022-10-15T00:25:46;100565.84;;;7.92;100.00
50444;BME280;36370;52.216;21.142;2022-10-15T00:29:48;100567.25;;;7.99;100.00
50444;BME280;36370;52.216;21.142;2022-10-15T00:33:52;100566.97;;;8.05;100.00
50444;BME280;36370;52.216;21.142;2022-10-15T00:37:56;100575.44;;;8.11;100.00
50444;BME280;36370;52.216;21.142;2022-10-15T00:41:58;100569.38;;;8.10;100.00
50444;BME280;36370;52.216;21.142;2022-10-15T00:45:59;100566.69;;;8.12;100.00
50444;BME280;36370;52.216;21.142;2022-10-15T00:50:25;100569.38;;;8.10;100.00
50444;BME280;36370;52.216;21.142;2022-10-15T00:54:31;100565.13;;;8.07;100.00
50444;BME280;36370;52.216;21.142;2022-10-15T00:58:35;100562.03;;;7.99;100.00
50444;BME280;36370;52.216;21.142;2022-10-15T01:02:37;100564.03;;;7.94;100.00
50444;BME280;36370;52.216;21.142;2022-10-15T01:06:40;100565.50;;;8.00;100.00
50444;BME280;36370;52.216;21.142;2022-10-15T01:15:44;100543.66;;;8.18;100.00
50444;BME280;36370;52.216;21.142;2022-10-15T01:28:57;100560.41;;;8.33;100.00
50444;BME280;36370;52.216;21.142;2022-10-15T01:33:18;100560.94;;;8.40;100.00
50444;BME280;36370;52.216;21.142;2022-10-15T01:37:44;100560.66;;;8.46;100.00
50444;BME280;36370;52.216;21.142;2022-10-15T01:42:04;100555.88;;;8.54;100.00
50444;BME280;36370;52.216;21.142;2022-10-15T01:46:13;100559.91;;;8.61;100.00
50444;BME280;36370;52.216;21.142;2022-10-15T01:50:29;100557.34;;;8.60;100.00
50444;BME280;36370;52.216;21.142;2022-10-15T01:54:32;100554.81;;;8.58;100.00
50444;BME280;36370;52.216;21.142;2022-10-15T01:58:38;100537.16;;;8.62;100.00
50444;BME280;36370;52.216;21.142;2022-10-15T02:02:41;100543.88;;;8.68;100.00
50444;BME280;36370;52.216;21.142;2022-10-15T02:06:45;100536.63;;;8.73;100.00
50444;BME280;36370;52.216;21.142;2022-10-15T02:11:04;100540.72;;;8.61;100.00
50444;BME280;36370;52.216;21.142;2022-10-15T02:23:51;100536.56;;;8.57;100.00
50444;BME280;36370;52.216;21.142;2022-10-15T02:27:58;100529.22;;;8.63;100.00
50444;BME280;36370;52.216;21.142;2022-10-15T02:32:02;100535.09;;;8.69;100.00
50444;BME280;36370;52.216;21.142;2022-10-15T02:36:07;100528.75;;;8.73;100.00
50444;BME280;36370;52.216;21.142;2022-10-15T02:40:10;100524.84;;;8.64;100.00
50444;BME280;36370;52.216;21.142;2022-10-15T02:44:12;100515.91;;;8.68;100.00
50444;BME280;36370;52.216;21.142;2022-10-15T02:48:14;100513.91;;;8.73;100.00
50444;BME280;36370;52.216;21.142;2022-10-15T02:52:16;100504.03;;;8.78;100.00
50444;BME280;36370;52.216;21.142;2022-10-15T02:56:19;100500.81;;;8.73;100.00
50444;BME280;36370;52.216;21.142;2022-10-15T03:00:22;100500.66;;;8.76;100.00
50444;BME280;36370;52.216;21.142;2022-10-15T03:04:24;100508.19;;;8.65;100.00
50444;BME280;36370;52.216;21.142;2022-10-15T03:08:25;100509.97;;;8.65;100.00
50444;BME280;36370;52.216;21.142;2022-10-15T03:12:28;100514.22;;;8.67;100.00
50444;BME280;36370;52.216;21.142;2022-10-15T03:16:31;100510.66;;;8.68;100.00
50444;BME280;36370;52.216;21.142;2022-10-15T03:20:33;100512.84;;;8.60;100.00
50444;BME280;36370;52.216;21.142;2022-10-15T03:24:35;100511.53;;;8.69;100.00
50444;BME280;36370;52.216;21.142;2022-10-15T03:28:38;100516.06;;;8.65;100.00
50444;BME280;36370;52.216;21.142;2022-10-15T03:32:40;100511.91;;;8.61;100.00
50444;BME280;36370;52.216;21.142;2022-10-15T03:36:47;100509.59;;;8.55;100.00
50444;BME280;36370;52.216;21.142;2022-10-15T03:40:49;100508.81;;;8.53;100.00
50444;BME280;36370;52.216;21.142;2022-10-15T03:45:02;100518.16;;;8.58;100.00
50444;BME280;36370;52.216;21.142;2022-10-15T03:49:04;100517.06;;;8.62;100.00
50444;BME280;36370;52.216;21.142;2022-10-15T03:53:06;100511.06;;;8.60;100.00
50444;BME280;36370;52.216;21.142;2022-10-15T03:57:08;100505.97;;;8.57;100.00
50444;BME280;36370;52.216;21.142;2022-10-15T04:01:17;100501.38;;;8.62;100.00
50444;BME280;36370;52.216;21.142;2022-10-15T04:05:20;100498.91;;;8.59;100.00
50444;BME280;36370;52.216;21.142;2022-10-15T04:09:27;100487.72;;;8.56;100.00
50444;BME280;36370;52.216;21.142;2022-10-15T04:13:49;100490.72;;;8.66;100.00
50444;BME280;36370;52.216;21.142;2022-10-15T04:17:54;100478.63;;;8.63;100.00
50444;BME280;36370;52.216;21.142;2022-10-15T04:21:58;100486.56;;;8.61;100.00
50444;BME280;36370;52.216;21.142;2022-10-15T04:26:05;100482.47;;;8.56;100.00
50444;BME280;36370;52.216;21.142;2022-10-15T04:30:08;100479.03;;;8.55;100.00
50444;BME280;36370;52.216;21.142;2022-10-15T04:34:13;100479.69;;;8.59;100.00
50444;BME280;36370;52.216;21.142;2022-10-15T04:38:15;100480.31;;;8.64;100.00
50444;BME280;36370;52.216;21.142;2022-10-15T04:42:30;100478.03;;;8.58;100.00
50444;BME280;36370;52.216;21.142;2022-10-15T04:46:32;100472.22;;;8.51;100.00
50444;BME280;36370;52.216;21.142;2022-10-15T04:50:42;100478.41;;;8.50;100.00
50444;BME280;36370;52.216;21.142;2022-10-15T04:54:51;100478.50;;;8.49;100.00
50444;BME280;36370;52.216;21.142;2022-10-15T04:58:53;100477.16;;;8.40;100.00
50444;BME280;36370;52.216;21.142;2022-10-15T05:02:56;100479.00;;;8.38;100.00
50444;BME280;36370;52.216;21.142;2022-10-15T05:07:15;100482.63;;;8.35;100.00
50444;BME280;36370;52.216;21.142;2022-10-15T05:11:21;100487.09;;;8.33;100.00
50444;BME280;36370;52.216;21.142;2022-10-15T05:15:25;100482.47;;;8.38;100.00
50444;BME280;36370;52.216;21.142;2022-10-15T05:19:27;100483.81;;;8.47;100.00
50444;BME280;36370;52.216;21.142;2022-10-15T05:23:30;100479.84;;;8.38;100.00
50444;BME280;36370;52.216;21.142;2022-10-15T05:27:44;100476.88;;;8.46;100.00
50444;BME280;36370;52.216;21.142;2022-10-15T05:31:49;100470.22;;;8.39;100.00
50444;BME280;36370;52.216;21.142;2022-10-15T05:35:56;100480.47;;;8.43;100.00
50444;BME280;36370;52.216;21.142;2022-10-15T05:39:58;100471.22;;;8.36;100.00
50444;BME280;36370;52.216;21.142;2022-10-15T05:44:01;100467.75;;;8.36;100.00
50444;BME280;36370;52.216;21.142;2022-10-15T05:48:04;100471.47;;;8.49;100.00
50444;BME280;36370;52.216;21.142;2022-10-15T05:52:06;100474.69;;;8.54;100.00
50444;BME280;36370;52.216;21.142;2022-10-15T05:56:27;100489.41;;;8.57;100.00
50444;BME280;36370;52.216;21.142;2022-10-15T06:00:29;100495.19;;;8.63;100.00
50444;BME280;36370;52.216;21.142;2022-10-15T06:04:31;100494.31;;;8.80;100.00
50444;BME280;36370;52.216;21.142;2022-10-15T06:08:36;100494.59;;;8.92;100.00
50444;BME280;36370;52.216;21.142;2022-10-15T06:12:38;100496.19;;;8.94;100.00
50444;BME280;36370;52.216;21.142;2022-10-15T06:16:40;100493.84;;;9.06;100.00
50444;BME280;36370;52.216;21.142;2022-10-15T06:20:42;100492.59;;;9.13;100.00
50444;BME280;36370;52.216;21.142;2022-10-15T06:24:44;100482.47;;;9.23;100.00
50444;BME280;36370;52.216;21.142;2022-10-15T06:28:46;100495.44;;;9.42;100.00
50444;BME280;36370;52.216;21.142;2022-10-15T06:32:52;100492.31;;;9.51;100.00
50444;BME280;36370;52.216;21.142;2022-10-15T06:36:54;100490.28;;;9.56;100.00
50444;BME280;36370;52.216;21.142;2022-10-15T06:40:56;100497.13;;;9.75;100.00
50444;BME280;36370;52.216;21.142;2022-10-15T06:44:58;100495.06;;;9.80;100.00
50444;BME280;36370;52.216;21.142;2022-10-15T06:48:59;100499.09;;;10.01;100.00
50444;BME280;36370;52.216;21.142;2022-10-15T06:53:01;100495.28;;;10.07;100.00
50444;BME280;36370;52.216;21.142;2022-10-15T06:57:03;100499.84;;;10.19;100.00
50444;BME280;36370;52.216;21.142;2022-10-15T07:01:05;100497.41;;;10.31;100.00
50444;BME280;36370;52.216;21.142;2022-10-15T07:05:08;100502.25;;;10.38;100.00
50444;BME280;36370;52.216;21.142;2022-10-15T07:09:10;100488.50;;;10.64;100.00
50444;BME280;36370;52.216;21.142;2022-10-15T07:13:12;100489.53;;;10.61;100.00
50444;BME280;36370;52.216;21.142;2022-10-15T07:17:15;100487.75;;;10.76;100.00
50444;BME280;36370;52.216;21.142;2022-10-15T07:21:17;100481.41;;;10.80;100.00
50444;BME280;36370;52.216;21.142;2022-10-15T07:25:19;100483.06;;;10.81;100.00
50444;BME280;36370;52.216;21.142;2022-10-15T07:29:20;100479.88;;;10.90;100.00
50444;BME280;36370;52.216;21.142;2022-10-15T07:33:22;100474.44;;;11.08;100.00
50444;BME280;36370;52.216;21.142;2022-10-15T07:37:33;100470.13;;;10.92;100.00
50444;BME280;36370;52.216;21.142;2022-10-15T07:41:35;100470.94;;;11.07;100.00
50444;BME280;36370;52.216;21.142;2022-10-15T07:45:37;100471.25;;;11.17;100.00
50444;BME280;36370;52.216;21.142;2022-10-15T07:49:39;100456.91;;;11.36;100.00
50444;BME280;36370;52.216;21.142;2022-10-15T07:53:40;100450.75;;;11.64;100.00
50444;BME280;36370;52.216;21.142;2022-10-15T07:57:44;100440.88;;;11.80;100.00
50444;BME280;36370;52.216;21.142;2022-10-15T08:01:46;100434.06;;;11.91;100.00
50444;BME280;36370;52.216;21.142;2022-10-15T08:05:51;100419.41;;;12.01;100.00
50444;BME280;36370;52.216;21.142;2022-10-15T08:09:54;100424.59;;;11.88;100.00
50444;BME280;36370;52.216;21.142;2022-10-15T08:14:00;100435.53;;;11.82;100.00
50444;BME280;36370;52.216;21.142;2022-10-15T08:18:04;100431.69;;;12.00;100.00
50444;BME280;36370;52.216;21.142;2022-10-15T08:22:06;100443.84;;;12.03;100.00
50444;BME280;36370;52.216;21.142;2022-10-15T08:26:07;100422.88;;;12.14;100.00
50444;BME280;36370;52.216;21.142;2022-10-15T08:30:10;100419.50;;;12.12;100.00
50444;BME280;36370;52.216;21.142;2022-10-15T08:34:11;100409.09;;;12.36;100.00
50444;BME280;36370;52.216;21.142;2022-10-15T08:38:13;100413.00;;;12.31;100.00
50444;BME280;36370;52.216;21.142;2022-10-15T08:42:28;100411.28;;;12.81;100.00
50444;BME280;36370;52.216;21.142;2022-10-15T08:46:39;100392.78;;;13.07;100.00
50444;BME280;36370;52.216;21.142;2022-10-15T08:50:58;100380.59;;;13.17;100.00
50444;BME280;36370;52.216;21.142;2022-10-15T08:55:02;100375.03;;;13.46;100.00
50444;BME280;36370;52.216;21.142;2022-10-15T08:59:32;100366.03;;;13.84;100.00
50444;BME280;36370;52.216;21.142;2022-10-15T09:03:59;100368.09;;;13.92;100.00
50444;BME280;36370;52.216;21.142;2022-10-15T09:08:27;100357.22;;;14.19;100.00
50444;BME280;36370;52.216;21.142;2022-10-15T09:16:50;100374.53;;;14.34;100.00
50444;BME280;36370;52.216;21.142;2022-10-15T09:20:53;100386.41;;;14.40;100.00
50444;BME280;36370;52.216;21.142;2022-10-15T09:24:55;100387.63;;;14.59;100.00
50444;BME280;36370;52.216;21.142;2022-10-15T09:29:04;100392.59;;;14.63;100.00
50444;BME280;36370;52.216;21.142;2022-10-15T09:33:32;100386.69;;;14.48;100.00
50444;BME280;36370;52.216;21.142;2022-10-15T09:42:29;100384.28;;;14.90;100.00
50444;BME280;36370;52.216;21.142;2022-10-15T09:46:32;100397.88;;;14.97;100.00
50444;BME280;36370;52.216;21.142;2022-10-15T09:50:39;100394.16;;;15.00;100.00
50444;BME280;36370;52.216;21.142;2022-10-15T09:58:57;100397.59;;;15.12;100.00
50444;BME280;36370;52.216;21.142;2022-10-15T10:03:05;100400.28;;;14.89;100.00
50444;BME280;36370;52.216;21.142;2022-10-15T10:12:03;100385.47;;;15.09;100.00
50444;BME280;36370;52.216;21.142;2022-10-15T10:16:09;100399.13;;;15.25;100.00
50444;BME280;36370;52.216;21.142;2022-10-15T10:20:17;100385.53;;;15.30;100.00
50444;BME280;36370;52.216;21.142;2022-10-15T10:24:29;100386.59;;;15.39;100.00
50444;BME280;36370;52.216;21.142;2022-10-15T10:28:36;100381.69;;;15.34;100.00
50444;BME280;36370;52.216;21.142;2022-10-15T10:32:45;100388.75;;;15.45;100.00
50444;BME280;36370;52.216;21.142;2022-10-15T10:36:50;100389.88;;;15.64;100.00
50444;BME280;36370;52.216;21.142;2022-10-15T10:40:55;100394.69;;;15.91;100.00
50444;BME280;36370;52.216;21.142;2022-10-15T10:45:15;100414.69;;;16.16;100.00
50444;BME280;36370;52.216;21.142;2022-10-15T10:49:30;100416.56;;;16.25;100.00
50444;BME280;36370;52.216;21.142;2022-10-15T10:53:38;100438.16;;;16.42;100.00
50444;BME280;36370;52.216;21.142;2022-10-15T10:57:53;100442.25;;;16.77;100.00
50444;BME280;36370;52.216;21.142;2022-10-15T11:01:55;100441.59;;;17.15;100.00
50444;BME280;36370;52.216;21.142;2022-10-15T11:06:15;100441.06;;;17.31;100.00
50444;BME280;36370;52.216;21.142;2022-10-15T11:10:25;100438.53;;;17.39;100.00
50444;BME280;36370;52.216;21.142;2022-10-15T11:32:15;100459.56;;;17.62;100.00
50444;BME280;36370;52.216;21.142;2022-10-15T11:36:39;100442.78;;;17.81;100.00
50444;BME280;36370;52.216;21.142;2022-10-15T11:40:55;100450.75;;;17.81;100.00
50444;BME280;36370;52.216;21.142;2022-10-15T11:54:12;100453.69;;;17.68;100.00
50444;BME280;36370;52.216;21.142;2022-10-15T11:58:26;100457.47;;;17.85;100.00
50444;BME280;36370;52.216;21.142;2022-10-15T12:02:33;100459.44;;;18.32;100.00
50444;BME280;36370;52.216;21.142;2022-10-15T12:06:40;100451.16;;;18.35;100.00
50444;BME280;36370;52.216;21.142;2022-10-15T12:19:44;100453.41;;;17.71;100.00
50444;BME280;36370;52.216;21.142;2022-10-15T12:23:48;100454.06;;;17.54;100.00
50444;BME280;36370;52.216;21.142;2022-10-15T12:27:58;100456.88;;;17.52;100.00
50444;BME280;36370;52.216;21.142;2022-10-15T12:32:01;100453.09;;;17.55;100.00
50444;BME280;36370;52.216;21.142;2022-10-15T12:48:34;100442.03;;;17.30;100.00
50444;BME280;36370;52.216;21.142;2022-10-15T12:52:59;100440.19;;;17.31;100.00
50444;BME280;36370;52.216;21.142;2022-10-15T13:05:44;100450.53;;;17.24;100.00
50444;BME280;36370;52.216;21.142;2022-10-15T13:09:51;100442.84;;;17.31;100.00
50444;BME280;36370;52.216;21.142;2022-10-15T13:14:01;100446.09;;;17.34;100.00
50444;BME280;36370;52.216;21.142;2022-10-15T13:18:07;100438.81;;;17.27;100.00
50444;BME280;36370;52.216;21.142;2022-10-15T13:22:29;100443.56;;;17.33;100.00
50444;BME280;36370;52.216;21.142;2022-10-15T13:26:31;100447.75;;;17.35;100.00
50444;BME280;36370;52.216;21.142;2022-10-15T13:30:33;100445.81;;;17.28;100.00
50444;BME280;36370;52.216;21.142;2022-10-15T13:34:35;100452.25;;;17.45;100.00
50444;BME280;36370;52.216;21.142;2022-10-15T13:38:37;100444.31;;;17.64;100.00
50444;BME280;36370;52.216;21.142;2022-10-15T13:42:58;100447.66;;;17.56;100.00
50444;BME280;36370;52.216;21.142;2022-10-15T13:47:01;100447.53;;;17.58;100.00
50444;BME280;36370;52.216;21.142;2022-10-15T13:51:04;100442.47;;;17.55;100.00
50444;BME280;36370;52.216;21.142;2022-10-15T13:55:16;100442.22;;;17.48;100.00
50444;BME280;36370;52.216;21.142;2022-10-15T13:59:19;100443.03;;;17.39;100.00
50444;BME280;36370;52.216;21.142;2022-10-15T14:03:32;100449.00;;;17.21;100.00
50444;BME280;36370;52.216;21.142;2022-10-15T14:07:36;100439.91;;;17.14;100.00
50444;BME280;36370;52.216;21.142;2022-10-15T14:11:38;100445.34;;;17.13;100.00
50444;BME280;36370;52.216;21.142;2022-10-15T14:15:47;100448.69;;;17.15;100.00
50444;BME280;36370;52.216;21.142;2022-10-15T14:19:54;100452.06;;;17.17;100.00
50444;BME280;36370;52.216;21.142;2022-10-15T14:24:22;100447.44;;;17.19;100.00
50444;BME280;36370;52.216;21.142;2022-10-15T14:28:30;100451.06;;;17.08;100.00
50444;BME280;36370;52.216;21.142;2022-10-15T14:32:46;100446.00;;;17.05;100.00
50444;BME280;36370;52.216;21.142;2022-10-15T14:36:48;100448.53;;;17.07;100.00
50444;BME280;36370;52.216;21.142;2022-10-15T14:40:58;100453.09;;;16.95;100.00
50444;BME280;36370;52.216;21.142;2022-10-15T14:49:24;100445.56;;;16.69;100.00
50444;BME280;36370;52.216;21.142;2022-10-15T14:53:30;100442.00;;;16.59;100.00
50444;BME280;36370;52.216;21.142;2022-10-15T14:57:39;100436.91;;;16.46;100.00
50444;BME280;36370;52.216;21.142;2022-10-15T15:01:51;100446.31;;;16.50;100.00
50444;BME280;36370;52.216;21.142;2022-10-15T15:05:59;100449.22;;;16.47;100.00
50444;BME280;36370;52.216;21.142;2022-10-15T15:10:00;100451.63;;;16.50;100.00
50444;BME280;36370;52.216;21.142;2022-10-15T15:14:02;100446.56;;;16.47;100.00
50444;BME280;36370;52.216;21.142;2022-10-15T15:18:04;100436.59;;;16.18;100.00
50444;BME280;36370;52.216;21.142;2022-10-15T15:22:10;100418.44;;;16.13;100.00
50444;BME280;36370;52.216;21.142;2022-10-15T15:26:12;100428.84;;;16.05;100.00
50444;BME280;36370;52.216;21.142;2022-10-15T15:30:16;100428.00;;;16.05;100.00
50444;BME280;36370;52.216;21.142;2022-10-15T15:34:19;100436.94;;;16.04;100.00
50444;BME280;36370;52.216;21.142;2022-10-15T15:38:23;100440.03;;;16.09;100.00
50444;BME280;36370;52.216;21.142;2022-10-15T15:42:32;100434.84;;;16.07;100.00
50444;BME280;36370;52.216;21.142;2022-10-15T15:46:33;100428.06;;;15.93;100.00
50444;BME280;36370;52.216;21.142;2022-10-15T15:50:35;100424.13;;;15.76;100.00
50444;BME280;36370;52.216;21.142;2022-10-15T15:54:41;100423.56;;;15.73;100.00
50444;BME280;36370;52.216;21.142;2022-10-15T15:58:43;100423.81;;;15.70;100.00
50444;BME280;36370;52.216;21.142;2022-10-15T16:02:46;100402.31;;;15.52;100.00
50444;BME280;36370;52.216;21.142;2022-10-15T16:06:48;100408.34;;;15.42;100.00
50444;BME280;36370;52.216;21.142;2022-10-15T16:10:50;100383.50;;;15.34;100.00
50444;BME280;36370;52.216;21.142;2022-10-15T16:14:51;100388.41;;;15.38;100.00
50444;BME280;36370;52.216;21.142;2022-10-15T16:18:53;100385.03;;;15.36;100.00
50444;BME280;36370;52.216;21.142;2022-10-15T16:22:55;100377.59;;;15.30;100.00
50444;BME280;36370;52.216;21.142;2022-10-15T16:26:57;100378.03;;;15.47;100.00
50444;BME280;36370;52.216;21.142;2022-10-15T16:31:13;100379.97;;;15.44;100.00
50444;BME280;36370;52.216;21.142;2022-10-15T16:35:15;100384.53;;;15.42;100.00
50444;BME280;36370;52.216;21.142;2022-10-15T16:39:17;100368.19;;;15.37;100.00
50444;BME280;36370;52.216;21.142;2022-10-15T16:43:19;100379.72;;;15.36;100.00
50444;BME280;36370;52.216;21.142;2022-10-15T16:47:21;100386.34;;;15.42;100.00
50444;BME280;36370;52.216;21.142;2022-10-15T16:51:23;100386.72;;;15.37;100.00
50444;BME280;36370;52.216;21.142;2022-10-15T16:55:25;100395.75;;;15.35;100.00
50444;BME280;36370;52.216;21.142;2022-10-15T16:59:29;100397.06;;;15.40;100.00
50444;BME280;36370;52.216;21.142;2022-10-15T17:03:33;100404.53;;;15.35;100.00
50444;BME280;36370;52.216;21.142;2022-10-15T17:07:36;100414.28;;;15.35;100.00
50444;BME280;36370;52.216;21.142;2022-10-15T17:11:40;100410.91;;;15.33;100.00
50444;BME280;36370;52.216;21.142;2022-10-15T17:15:42;100405.66;;;15.21;100.00
50444;BME280;36370;52.216;21.142;2022-10-15T17:19:44;100409.03;;;15.12;100.00
50444;BME280;36370;52.216;21.142;2022-10-15T17:23:48;100416.50;;;15.07;100.00
50444;BME280;36370;52.216;21.142;2022-10-15T17:27:50;100418.19;;;14.97;100.00
50444;BME280;36370;52.216;21.142;2022-10-15T17:31:53;100422.31;;;14.78;100.00
50444;BME280;36370;52.216;21.142;2022-10-15T17:35:55;100445.72;;;14.60;100.00
50444;BME280;36370;52.216;21.142;2022-10-15T17:39:56;100448.44;;;14.47;100.00
50444;BME280;36370;52.216;21.142;2022-10-15T17:43:58;100453.25;;;14.42;100.00
50444;BME280;36370;52.216;21.142;2022-10-15T17:48:00;100465.22;;;14.35;100.00
50444;BME280;36370;52.216;21.142;2022-10-15T17:52:02;100470.84;;;14.19;100.00
50444;BME280;36370;52.216;21.142;2022-10-15T17:56:14;100475.41;;;14.17;100.00
50444;BME280;36370;52.216;21.142;2022-10-15T18:00:16;100481.63;;;14.05;100.00
50444;BME280;36370;52.216;21.142;2022-10-15T18:04:18;100484.03;;;14.08;100.00
50444;BME280;36370;52.216;21.142;2022-10-15T18:08:20;100487.00;;;14.03;100.00
50444;BME280;36370;52.216;21.142;2022-10-15T18:12:22;100482.22;;;14.08;100.00
50444;BME280;36370;52.216;21.142;2022-10-15T18:16:24;100482.44;;;14.05;100.00
50444;BME280;36370;52.216;21.142;2022-10-15T18:20:26;100488.75;;;13.91;100.00
50444;BME280;36370;52.216;21.142;2022-10-15T18:24:28;100494.75;;;13.93;100.00
50444;BME280;36370;52.216;21.142;2022-10-15T18:28:30;100506.75;;;13.86;100.00
50444;BME280;36370;52.216;21.142;2022-10-15T18:32:32;100510.44;;;13.83;100.00
50444;BME280;36370;52.216;21.142;2022-10-15T18:36:39;100507.19;;;13.80;100.00
50444;BME280;36370;52.216;21.142;2022-10-15T18:40:42;100496.91;;;13.88;100.00
50444;BME280;36370;52.216;21.142;2022-10-15T18:44:45;100500.03;;;13.93;100.00
50444;BME280;36370;52.216;21.142;2022-10-15T18:48:47;100491.78;;;13.98;100.00
50444;BME280;36370;52.216;21.142;2022-10-15T18:52:49;100493.91;;;13.93;100.00
50444;BME280;36370;52.216;21.142;2022-10-15T18:56:51;100482.69;;;14.02;100.00
50444;BME280;36370;52.216;21.142;2022-10-15T19:00:54;100477.97;;;13.94;100.00
50444;BME280;36370;52.216;21.142;2022-10-15T19:04:56;100466.22;;;13.98;100.00
50444;BME280;36370;52.216;21.142;2022-10-15T19:08:59;100489.09;;;13.87;100.00
50444;BME280;36370;52.216;21.142;2022-10-15T19:13:03;100487.72;;;13.81;100.00
50444;BME280;36370;52.216;21.142;2022-10-15T19:17:05;100491.25;;;13.69;100.00
50444;BME280;36370;52.216;21.142;2022-10-15T19:21:09;100493.75;;;13.59;100.00
50444;BME280;36370;52.216;21.142;2022-10-15T19:25:11;100506.78;;;13.49;100.00
50444;BME280;36370;52.216;21.142;2022-10-15T19:29:13;100497.31;;;13.71;100.00
50444;BME280;36370;52.216;21.142;2022-10-15T19:33:15;100485.75;;;13.72;100.00
50444;BME280;36370;52.216;21.142;2022-10-15T19:37:17;100493.75;;;13.83;100.00
50444;BME280;36370;52.216;21.142;2022-10-15T19:41:23;100490.25;;;13.82;100.00
50444;BME280;36370;52.216;21.142;2022-10-15T19:45:25;100488.59;;;13.81;100.00
50444;BME280;36370;52.216;21.142;2022-10-15T19:49:27;100496.44;;;13.70;100.00
50444;BME280;36370;52.216;21.142;2022-10-15T19:53:29;100498.28;;;13.81;100.00
50444;BME280;36370;52.216;21.142;2022-10-15T19:57:31;100486.28;;;13.77;100.00
50444;BME280;36370;52.216;21.142;2022-10-15T20:01:33;100488.25;;;13.86;100.00
50444;BME280;36370;52.216;21.142;2022-10-15T20:05:35;100493.69;;;13.96;100.00
50444;BME280;36370;52.216;21.142;2022-10-15T20:09:37;100495.38;;;13.97;100.00
50444;BME280;36370;52.216;21.142;2022-10-15T20:13:39;100503.66;;;13.92;100.00
50444;BME280;36370;52.216;21.142;2022-10-15T20:17:40;100510.00;;;13.90;100.00
50444;BME280;36370;52.216;21.142;2022-10-15T20:21:42;100512.44;;;14.04;100.00
50444;BME280;36370;52.216;21.142;2022-10-15T20:25:45;100515.09;;;14.04;100.00
50444;BME280;36370;52.216;21.142;2022-10-15T20:29:47;100520.22;;;13.94;100.00
50444;BME280;36370;52.216;21.142;2022-10-15T20:33:48;100526.22;;;13.96;100.00
50444;BME280;36370;52.216;21.142;2022-10-15T20:37:50;100520.84;;;13.98;100.00
50444;BME280;36370;52.216;21.142;2022-10-15T20:41:52;100521.06;;;13.95;100.00
50444;BME280;36370;52.216;21.142;2022-10-15T20:45:54;100531.72;;;13.93;100.00
50444;BME280;36370;52.216;21.142;2022-10-15T20:49:56;100536.19;;;13.93;100.00
50444;BME280;36370;52.216;21.142;2022-10-15T20:53:58;100532.59;;;13.94;100.00
50444;BME280;36370;52.216;21.142;2022-10-15T20:58:00;100540.44;;;13.82;100.00
50444;BME280;36370;52.216;21.142;2022-10-15T21:02:02;100532.50;;;13.82;100.00
50444;BME280;36370;52.216;21.142;2022-10-15T21:06:04;100544.19;;;13.67;100.00
50444;BME280;36370;52.216;21.142;2022-10-15T21:10:06;100540.44;;;13.58;100.00
50444;BME280;36370;52.216;21.142;2022-10-15T21:14:10;100540.69;;;13.42;100.00
50444;BME280;36370;52.216;21.142;2022-10-15T21:18:12;100546.28;;;13.38;100.00
50444;BME280;36370;52.216;21.142;2022-10-15T21:22:14;100553.72;;;13.31;100.00
50444;BME280;36370;52.216;21.142;2022-10-15T21:26:16;100558.72;;;13.36;100.00
50444;BME280;36370;52.216;21.142;2022-10-15T21:30:18;100561.13;;;13.26;100.00
50444;BME280;36370;52.216;21.142;2022-10-15T21:34:21;100571.69;;;13.26;100.00
50444;BME280;36370;52.216;21.142;2022-10-15T21:38:27;100570.09;;;13.23;100.00
50444;BME280;36370;52.216;21.142;2022-10-15T21:42:29;100565.25;;;13.17;100.00
50444;BME280;36370;52.216;21.142;2022-10-15T21:46:32;100571.94;;;13.10;100.00
50444;BME280;36370;52.216;21.142;2022-10-15T21:50:34;100577.50;;;13.05;100.00
50444;BME280;36370;52.216;21.142;2022-10-15T21:54:36;100575.06;;;13.15;100.00
50444;BME280;36370;52.216;21.142;2022-10-15T21:58:38;100573.28;;;13.16;100.00
50444;BME280;36370;52.216;21.142;2022-10-15T22:02:41;100573.06;;;13.19;100.00
50444;BME280;36370;52.216;21.142;2022-10-15T22:06:42;100573.19;;;13.30;100.00
50444;BME280;36370;52.216;21.142;2022-10-15T22:10:44;100578.28;;;13.33;100.00
50444;BME280;36370;52.216;21.142;2022-10-15T22:14:46;100582.69;;;13.45;100.00
50444;BME280;36370;52.216;21.142;2022-10-15T22:18:48;100580.06;;;13.45;100.00
50444;BME280;36370;52.216;21.142;2022-10-15T22:22:52;100586.13;;;13.59;100.00
50444;BME280;36370;52.216;21.142;2022-10-15T22:26:55;100585.31;;;13.58;100.00
50444;BME280;36370;52.216;21.142;2022-10-15T22:31:06;100590.53;;;13.71;100.00
50444;BME280;36370;52.216;21.142;2022-10-15T22:35:09;100595.28;;;13.79;100.00